Tajima — 3FNU6 — position and weather

sailwx.info

Track history (hours):
 
Tides and Currents Weather Stations Pressure Air Temp Water Temp Dewpoint Dewpoint Depression Visibility Wind Speed Wind Dir Waves Ship Positions

Tajima

Last reported at 2018-Apr-10 14:01 UTC. Time now 2018-Apr-22 02:59 UTC.
Position N 36°51' W 075°52'.
Warning: this ship's position is 11 days out of date.

Length 333 m; beam 60 m.

Type: Cargo ship. MMSI: 351120000.

Date/timePositionNaut miles runAvg speedWind from/ knotsBaromVisibWave heightAir tempDewpointWater temp
2018-Apr-10 14:01N 36°51' W 075°52'0 8.5
2018-Apr-10 14:00N 36°51' W 075°52'5 9.1
2018-Apr-10 13:30N 36°55' W 075°56'5 9.1
2018-Apr-10 13:00N 36°57' W 076°01'611.2
2018-Apr-10 12:29N 36°59' W 076°08'11 1.1
2018-Apr-10 02:44N 36°55' W 076°20'2 9.1
2018-Apr-10 02:30N 36°53' W 076°20'3 6.4
2018-Apr-10 02:00N 36°50' W 076°18'2 3.7
2018-Apr-10 01:30N 36°48' W 076°17'0 0.1
2018-Apr-10 01:00N 36°48' W 076°17'0 0.0
2018-Apr-10 00:30N 36°48' W 076°17'0 0.0
2018-Apr-10 00:00N 36°48' W 076°17'0 0.0
2018-Apr-09 23:30N 36°48' W 076°17'0 0.0
2018-Apr-09 23:00N 36°48' W 076°17'0 0.0
2018-Apr-09 22:30N 36°48' W 076°17'0 0.0
2018-Apr-09 22:00N 36°48' W 076°17'0 0.0
2018-Apr-09 21:30N 36°48' W 076°17'0 0.0
2018-Apr-09 21:00N 36°48' W 076°17'0 0.0
2018-Apr-09 20:30N 36°48' W 076°17'0 0.0
2018-Apr-09 20:00N 36°48' W 076°17'0 0.0
2018-Apr-09 19:30N 36°48' W 076°17'0 0.0
2018-Apr-09 19:00N 36°48' W 076°17'0 0.0
2018-Apr-09 18:30N 36°48' W 076°17'0 0.0
2018-Apr-09 18:00N 36°48' W 076°17'0 0.0
2018-Apr-09 17:30N 36°48' W 076°17'0 0.0
2018-Apr-09 17:00N 36°48' W 076°17'0 0.0
2018-Apr-09 16:30N 36°48' W 076°17'0 0.0
2018-Apr-09 16:00N 36°48' W 076°17'0 0.0
2018-Apr-09 15:30N 36°48' W 076°17'0 0.0
2018-Apr-09 15:00N 36°48' W 076°17'0 0.0
2018-Apr-09 14:30N 36°48' W 076°17'0 0.0
2018-Apr-09 14:00N 36°48' W 076°17'0 0.0
2018-Apr-09 13:30N 36°48' W 076°17'0 0.0
2018-Apr-09 13:00N 36°48' W 076°17'0 0.0
2018-Apr-09 12:30N 36°48' W 076°17'0 0.0
2018-Apr-09 12:00N 36°48' W 076°17'0 0.0
2018-Apr-09 11:30N 36°48' W 076°17'0 0.0
2018-Apr-09 11:00N 36°48' W 076°17'0 0.0
2018-Apr-09 10:30N 36°48' W 076°17'0 0.0
2018-Apr-09 10:00N 36°48' W 076°17'0 0.0
2018-Apr-09 09:30N 36°48' W 076°17'0 0.0
2018-Apr-09 09:00N 36°48' W 076°17'0 0.0
2018-Apr-09 08:30N 36°48' W 076°17'0 0.0
2018-Apr-09 08:00N 36°48' W 076°17'0 0.0
2018-Apr-09 07:30N 36°48' W 076°17'0 0.0
2018-Apr-09 07:00N 36°48' W 076°17'0 0.0
2018-Apr-09 06:30N 36°48' W 076°17'0 0.0
2018-Apr-09 06:00N 36°48' W 076°17'0 0.0
2018-Apr-09 05:30N 36°48' W 076°17'0 0.0
2018-Apr-09 05:00N 36°48' W 076°17'0 0.0
2018-Apr-09 04:30N 36°48' W 076°17'0 0.0
2018-Apr-09 04:00N 36°48' W 076°17'0 0.0
2018-Apr-09 03:30N 36°48' W 076°17'0 0.0
2018-Apr-09 03:00N 36°48' W 076°17'0 0.0
2018-Apr-09 02:30N 36°48' W 076°17'0 0.0
2018-Apr-09 02:00N 36°48' W 076°17'0 0.0
2018-Apr-09 01:30N 36°48' W 076°17'0 0.0
2018-Apr-09 01:00N 36°48' W 076°17'0 0.0
2018-Apr-09 00:30N 36°48' W 076°17'0 0.0
2018-Apr-09 00:00N 36°48' W 076°17'0 0.0
2018-Apr-08 23:27N 36°48' W 076°17'0 0.0
2018-Apr-08 23:00N 36°48' W 076°17'0 0.0
2018-Apr-08 22:30N 36°48' W 076°17'0 0.0
2018-Apr-08 22:00N 36°48' W 076°17'0 0.0
2018-Apr-08 21:30N 36°48' W 076°17'0 0.0
2018-Apr-08 21:00N 36°48' W 076°17'0 0.0
2018-Apr-08 20:30N 36°48' W 076°17'0 0.0
2018-Apr-08 20:00N 36°48' W 076°17'0 0.0
2018-Apr-08 19:30N 36°48' W 076°17'0 0.0
2018-Apr-08 19:00N 36°48' W 076°17'0 0.0
2018-Apr-08 18:30N 36°48' W 076°17'0 0.0
2018-Apr-08 18:00N 36°48' W 076°17'0 0.0
2018-Apr-08 17:30N 36°48' W 076°17'0 0.0
2018-Apr-08 16:57N 36°48' W 076°17'0 0.0
2018-Apr-08 16:30N 36°48' W 076°17'0 0.0
2018-Apr-08 16:00N 36°48' W 076°17'0 0.0
2018-Apr-08 15:30N 36°48' W 076°17'0 0.0
2018-Apr-08 15:00N 36°48' W 076°17'0 0.0
2018-Apr-08 14:27N 36°48' W 076°17'0 0.0
2018-Apr-08 14:00N 36°48' W 076°17'0 0.0
2018-Apr-08 13:30N 36°48' W 076°17'0 0.0
2018-Apr-08 12:57N 36°48' W 076°17'0 0.0
2018-Apr-08 12:30N 36°48' W 076°17'0 0.0
2018-Apr-08 12:00N 36°48' W 076°17'0 0.0
2018-Apr-08 11:30N 36°48' W 076°17'0 0.0
2018-Apr-08 11:00N 36°48' W 076°17'0 0.0
2018-Apr-08 10:30N 36°48' W 076°17'0 0.0
2018-Apr-08 10:00N 36°48' W 076°17'0 0.0
2018-Apr-08 09:30N 36°48' W 076°17'0 0.0
2018-Apr-08 09:00N 36°48' W 076°17'0 0.0
2018-Apr-08 08:30N 36°48' W 076°17'0 0.0
2018-Apr-08 07:57N 36°48' W 076°17'0 0.0
2018-Apr-08 07:30N 36°48' W 076°17'0 0.0
2018-Apr-08 06:59N 36°48' W 076°17'0 0.0
2018-Apr-08 06:30N 36°48' W 076°17'0 0.0
2018-Apr-08 06:00N 36°48' W 076°17'0 0.0
2018-Apr-08 05:30N 36°48' W 076°17'0 0.0
2018-Apr-08 05:00N 36°48' W 076°17'0 0.0
2018-Apr-08 04:30N 36°48' W 076°17'0 0.0
2018-Apr-08 04:00N 36°48' W 076°17'0 0.0
2018-Apr-08 03:30N 36°48' W 076°17'0 0.0
2018-Apr-08 03:00N 36°48' W 076°17'0 0.0
2018-Apr-08 02:29N 36°48' W 076°17'0 0.0
2018-Apr-08 02:00N 36°48' W 076°17'0 0.0
2018-Apr-08 01:30N 36°48' W 076°17'0 0.0
2018-Apr-08 01:00N 36°48' W 076°17'0 0.0
2018-Apr-08 00:29N 36°48' W 076°17'0 0.0
2018-Apr-08 00:00N 36°48' W 076°17'0 0.0
2018-Apr-07 23:29N 36°48' W 076°17'0 0.0
2018-Apr-07 23:00N 36°48' W 076°17'0 0.0
2018-Apr-07 22:30N 36°48' W 076°17'0 0.0
2018-Apr-07 22:00N 36°48' W 076°17'0 0.0
2018-Apr-07 21:29N 36°48' W 076°17'0 0.0
2018-Apr-07 21:00N 36°48' W 076°17'0 0.0
2018-Apr-07 20:30N 36°48' W 076°17'0 0.0
2018-Apr-07 19:59N 36°48' W 076°17'0 0.0
2018-Apr-07 19:29N 36°48' W 076°17'0 0.0
2018-Apr-07 18:59N 36°48' W 076°17'0 0.0
2018-Apr-07 18:29N 36°48' W 076°17'0 0.0
2018-Apr-07 17:59N 36°48' W 076°17'0 0.0
2018-Apr-07 17:30N 36°48' W 076°17'0 0.0
2018-Apr-07 17:00N 36°48' W 076°17'0 0.0
2018-Apr-07 16:29N 36°48' W 076°17'0 0.0
2018-Apr-07 16:00N 36°48' W 076°17'0 0.0
2018-Apr-07 15:29N 36°48' W 076°17'0 0.0
2018-Apr-07 14:59N 36°48' W 076°17'0 0.0
2018-Apr-07 14:27N 36°48' W 076°17'0 0.0
2018-Apr-07 13:59N 36°48' W 076°17'0 0.0
2018-Apr-07 13:30N 36°48' W 076°17'0 0.0
2018-Apr-07 12:59N 36°48' W 076°17'0 0.0
2018-Apr-07 12:29N 36°48' W 076°17'0 0.0
2018-Apr-07 11:59N 36°48' W 076°17'0 0.0
2018-Apr-07 11:30N 36°48' W 076°17'0 0.0
2018-Apr-07 10:59N 36°48' W 076°17'0 0.0
2018-Apr-07 10:29N 36°48' W 076°17'0 0.0
2018-Apr-07 09:59N 36°48' W 076°17'0 0.0
2018-Apr-07 09:29N 36°48' W 076°17'0 0.0
2018-Apr-07 08:59N 36°48' W 076°17'0 0.0
2018-Apr-07 08:29N 36°48' W 076°17'0 0.0
2018-Apr-07 07:59N 36°48' W 076°17'0 0.0
2018-Apr-07 07:29N 36°48' W 076°17'0 0.0
2018-Apr-07 06:59N 36°48' W 076°17'0 0.0
2018-Apr-07 06:29N 36°48' W 076°17'0 0.0
2018-Apr-07 05:56N 36°48' W 076°17'0 0.0
2018-Apr-07 05:29N 36°48' W 076°17'0 0.0
2018-Apr-07 04:59N 36°48' W 076°17'0 0.0
2018-Apr-07 04:29N 36°48' W 076°17'0 0.0
2018-Apr-07 03:59N 36°48' W 076°17'0 0.0
2018-Apr-07 03:29N 36°48' W 076°17'0 0.0
2018-Apr-07 02:59N 36°48' W 076°17'0 0.0
2018-Apr-07 02:29N 36°48' W 076°17'0 0.0
2018-Apr-07 01:59N 36°48' W 076°17'0 0.0
2018-Apr-07 01:29N 36°48' W 076°17'0 0.0
2018-Apr-07 00:59N 36°48' W 076°17'0 0.0
2018-Apr-07 00:29N 36°48' W 076°17'0 0.0
2018-Apr-06 23:59N 36°48' W 076°17'0 0.0
2018-Apr-06 23:29N 36°48' W 076°17'0 0.0
2018-Apr-06 22:59N 36°48' W 076°17'0 0.0
2018-Apr-06 22:29N 36°48' W 076°17'0 0.0
2018-Apr-06 21:59N 36°48' W 076°17'0 0.0
2018-Apr-06 21:29N 36°48' W 076°17'0 0.0
2018-Apr-06 20:59N 36°48' W 076°17'0 0.0
2018-Apr-06 20:29N 36°48' W 076°17'0 0.0
2018-Apr-06 19:59N 36°48' W 076°17'0 0.0
2018-Apr-06 19:29N 36°48' W 076°17'0 0.0
2018-Apr-06 18:59N 36°48' W 076°17'0 0.0
2018-Apr-06 18:29N 36°48' W 076°17'0 0.0
2018-Apr-06 17:59N 36°48' W 076°17'0 0.0
2018-Apr-06 17:29N 36°48' W 076°17'0 0.0
2018-Apr-06 16:59N 36°48' W 076°17'0 0.0
2018-Apr-06 16:29N 36°48' W 076°17'0 0.0
2018-Apr-06 15:59N 36°48' W 076°17'0 0.0
2018-Apr-06 15:29N 36°48' W 076°17'0 0.0
2018-Apr-06 14:59N 36°48' W 076°17'0 0.0
2018-Apr-06 14:29N 36°48' W 076°17'0 0.0
2018-Apr-06 13:59N 36°48' W 076°17'0 0.0
2018-Apr-06 13:29N 36°48' W 076°17'0 0.0
2018-Apr-06 12:59N 36°48' W 076°17'0 0.0
2018-Apr-06 12:29N 36°48' W 076°17'0 0.0
2018-Apr-06 11:59N 36°48' W 076°17'0 0.0
2018-Apr-06 11:29N 36°48' W 076°17'0 0.0
2018-Apr-06 10:59N 36°48' W 076°17'0 0.0
2018-Apr-06 10:29N 36°48' W 076°17'0 0.0
2018-Apr-06 09:59N 36°48' W 076°17'0 0.0
2018-Apr-06 09:29N 36°48' W 076°17'0 0.0
2018-Apr-06 08:59N 36°48' W 076°17'0 0.0
2018-Apr-06 08:29N 36°48' W 076°17'0 0.0
2018-Apr-06 07:59N 36°48' W 076°17'0 0.0
2018-Apr-06 07:29N 36°48' W 076°17'0 0.0
2018-Apr-06 06:59N 36°48' W 076°17'0 0.0
2018-Apr-06 06:29N 36°48' W 076°17'0 0.0
2018-Apr-06 05:59N 36°48' W 076°17'0 0.0
2018-Apr-06 05:29N 36°48' W 076°17'0 0.0
2018-Apr-06 04:59N 36°48' W 076°17'0 0.0
2018-Apr-06 04:29N 36°48' W 076°17'0 0.0
2018-Apr-06 03:53N 36°48' W 076°17'0 0.0
2018-Apr-06 03:29N 36°48' W 076°17'0 0.0
2018-Apr-06 02:59N 36°48' W 076°17'0 0.0
2018-Apr-06 02:29N 36°48' W 076°17'0 0.0
2018-Apr-06 01:59N 36°48' W 076°17'0 0.0
2018-Apr-06 01:29N 36°48' W 076°17'0 0.0
2018-Apr-06 00:59N 36°48' W 076°17'0 0.0
2018-Apr-06 00:29N 36°48' W 076°17'0 0.0
2018-Apr-05 23:59N 36°48' W 076°17'0 0.0
2018-Apr-05 23:29N 36°48' W 076°17'0 0.0
2018-Apr-05 22:59N 36°48' W 076°17'0 0.0
2018-Apr-05 22:29N 36°48' W 076°17'0 0.0
2018-Apr-05 22:00N 36°48' W 076°17'1 3.0
2018-Apr-05 21:30N 36°50' W 076°18'2 4.6
2018-Apr-05 21:00N 36°52' W 076°19'4 7.4
2018-Apr-05 20:29N 36°55' W 076°20'2 2.6
2018-Apr-05 19:50N 36°56' W 076°22'0 0.0
2018-Apr-05 19:29N 36°56' W 076°22'0 0.0
2018-Apr-05 15:38N 36°56' W 076°22'0 0.0
2018-Apr-05 07:25N 36°56' W 076°22'0 0.0
2018-Apr-05 06:34N 36°56' W 076°22'0 0.0
2018-Apr-05 00:34N 36°56' W 076°22'0 0.1
2018-Apr-04 22:21N 36°57' W 076°22'13 8.6
2018-Apr-04 20:53N 36°58' W 076°06'4 9.3
2018-Apr-04 20:30N 36°57' W 076°02'5 9.6
2018-Apr-04 20:00N 36°57' W 075°56'4 7.3
2018-Apr-04 19:30N 36°57' W 075°51'23 0.9
2018-Apr-03 16:55N 36°58' W 076°20'2 0.1
2018-Apr-02 22:01N 36°56' W 076°22'0 5.3
2018-Apr-02 22:00N 36°57' W 076°22'19110.0
2018-Apr-02 02:52N 39°29' W 073°55'513.3
2018-Apr-02 02:27N 39°34' W 073°54'613.2
2018-Apr-02 02:00N 39°40' W 073°52'4011.6
2018-Apr-01 22:31N 40°20' W 073°49'0 9.8
2018-Apr-01 22:29N 40°20' W 073°48'11 2.0
2018-Apr-01 16:51N 40°29' W 073°38'0 0.0
2018-Apr-01 15:21N 40°29' W 073°38'0 0.0
2018-Apr-01 12:24N 40°29' W 073°38'0 0.0
2018-Mar-31 22:15N 40°29' W 073°39'0 0.0
2018-Mar-31 21:57N 40°29' W 073°39'0 0.0
2018-Mar-31 19:03N 40°29' W 073°39'0 0.0
2018-Mar-31 17:00N 40°29' W 073°38'0 0.0
2018-Mar-31 16:30N 40°29' W 073°38'  
Track history (hours):
 
Tides and Currents Weather Stations Pressure Air Temp Water Temp Dewpoint Dewpoint Depression Visibility Wind Speed Wind Dir Waves Ship Positions

Tajima

Last reported at 2018-Apr-10 14:01 UTC. Time now 2018-Apr-22 02:59 UTC.
Position N 36°51' W 075°52'.
Warning: this ship's position is 11 days out of date.

Length 333 m; beam 60 m.

Type: Cargo ship. MMSI: 351120000.

Date/timePositionNaut miles runAvg speedWind from/ knotsBaromVisibWave heightAir tempDewpointWater temp
2018-Apr-10 14:01N 36°51' W 075°52'0 8.5
2018-Apr-10 14:00N 36°51' W 075°52'5 9.1
2018-Apr-10 13:30N 36°55' W 075°56'5 9.1
2018-Apr-10 13:00N 36°57' W 076°01'611.2
2018-Apr-10 12:29N 36°59' W 076°08'11 1.1
2018-Apr-10 02:44N 36°55' W 076°20'2 9.1
2018-Apr-10 02:30N 36°53' W 076°20'3 6.4
2018-Apr-10 02:00N 36°50' W 076°18'2 3.7
2018-Apr-10 01:30N 36°48' W 076°17'0 0.1
2018-Apr-10 01:00N 36°48' W 076°17'0 0.0
2018-Apr-10 00:30N 36°48' W 076°17'0 0.0
2018-Apr-10 00:00N 36°48' W 076°17'0 0.0
2018-Apr-09 23:30N 36°48' W 076°17'0 0.0
2018-Apr-09 23:00N 36°48' W 076°17'0 0.0
2018-Apr-09 22:30N 36°48' W 076°17'0 0.0
2018-Apr-09 22:00N 36°48' W 076°17'0 0.0
2018-Apr-09 21:30N 36°48' W 076°17'0 0.0
2018-Apr-09 21:00N 36°48' W 076°17'0 0.0
2018-Apr-09 20:30N 36°48' W 076°17'0 0.0
2018-Apr-09 20:00N 36°48' W 076°17'0 0.0
2018-Apr-09 19:30N 36°48' W 076°17'0 0.0
2018-Apr-09 19:00N 36°48' W 076°17'0 0.0
2018-Apr-09 18:30N 36°48' W 076°17'0 0.0
2018-Apr-09 18:00N 36°48' W 076°17'0 0.0
2018-Apr-09 17:30N 36°48' W 076°17'0 0.0
2018-Apr-09 17:00N 36°48' W 076°17'0 0.0
2018-Apr-09 16:30N 36°48' W 076°17'0 0.0
2018-Apr-09 16:00N 36°48' W 076°17'0 0.0
2018-Apr-09 15:30N 36°48' W 076°17'0 0.0
2018-Apr-09 15:00N 36°48' W 076°17'0 0.0
2018-Apr-09 14:30N 36°48' W 076°17'0 0.0
2018-Apr-09 14:00N 36°48' W 076°17'0 0.0
2018-Apr-09 13:30N 36°48' W 076°17'0 0.0
2018-Apr-09 13:00N 36°48' W 076°17'0 0.0
2018-Apr-09 12:30N 36°48' W 076°17'0 0.0
2018-Apr-09 12:00N 36°48' W 076°17'0 0.0
2018-Apr-09 11:30N 36°48' W 076°17'0 0.0
2018-Apr-09 11:00N 36°48' W 076°17'0 0.0
2018-Apr-09 10:30N 36°48' W 076°17'0 0.0
2018-Apr-09 10:00N 36°48' W 076°17'0 0.0
2018-Apr-09 09:30N 36°48' W 076°17'0 0.0
2018-Apr-09 09:00N 36°48' W 076°17'0 0.0
2018-Apr-09 08:30N 36°48' W 076°17'0 0.0
2018-Apr-09 08:00N 36°48' W 076°17'0 0.0
2018-Apr-09 07:30N 36°48' W 076°17'0 0.0
2018-Apr-09 07:00N 36°48' W 076°17'0 0.0
2018-Apr-09 06:30N 36°48' W 076°17'0 0.0
2018-Apr-09 06:00N 36°48' W 076°17'0 0.0
2018-Apr-09 05:30N 36°48' W 076°17'0 0.0
2018-Apr-09 05:00N 36°48' W 076°17'0 0.0
2018-Apr-09 04:30N 36°48' W 076°17'0 0.0
2018-Apr-09 04:00N 36°48' W 076°17'0 0.0
2018-Apr-09 03:30N 36°48' W 076°17'0 0.0
2018-Apr-09 03:00N 36°48' W 076°17'0 0.0
2018-Apr-09 02:30N 36°48' W 076°17'0 0.0
2018-Apr-09 02:00N 36°48' W 076°17'0 0.0
2018-Apr-09 01:30N 36°48' W 076°17'0 0.0
2018-Apr-09 01:00N 36°48' W 076°17'0 0.0
2018-Apr-09 00:30N 36°48' W 076°17'0 0.0
2018-Apr-09 00:00N 36°48' W 076°17'0 0.0
2018-Apr-08 23:27N 36°48' W 076°17'0 0.0
2018-Apr-08 23:00N 36°48' W 076°17'0 0.0
2018-Apr-08 22:30N 36°48' W 076°17'0 0.0
2018-Apr-08 22:00N 36°48' W 076°17'0 0.0
2018-Apr-08 21:30N 36°48' W 076°17'0 0.0
2018-Apr-08 21:00N 36°48' W 076°17'0 0.0
2018-Apr-08 20:30N 36°48' W 076°17'0 0.0
2018-Apr-08 20:00N 36°48' W 076°17'0 0.0
2018-Apr-08 19:30N 36°48' W 076°17'0 0.0
2018-Apr-08 19:00N 36°48' W 076°17'0 0.0
2018-Apr-08 18:30N 36°48' W 076°17'0 0.0
2018-Apr-08 18:00N 36°48' W 076°17'0 0.0
2018-Apr-08 17:30N 36°48' W 076°17'0 0.0
2018-Apr-08 16:57N 36°48' W 076°17'0 0.0
2018-Apr-08 16:30N 36°48' W 076°17'0 0.0
2018-Apr-08 16:00N 36°48' W 076°17'0 0.0
2018-Apr-08 15:30N 36°48' W 076°17'0 0.0
2018-Apr-08 15:00N 36°48' W 076°17'0 0.0
2018-Apr-08 14:27N 36°48' W 076°17'0 0.0
2018-Apr-08 14:00N 36°48' W 076°17'0 0.0
2018-Apr-08 13:30N 36°48' W 076°17'0 0.0
2018-Apr-08 12:57N 36°48' W 076°17'0 0.0
2018-Apr-08 12:30N 36°48' W 076°17'0 0.0
2018-Apr-08 12:00N 36°48' W 076°17'0 0.0
2018-Apr-08 11:30N 36°48' W 076°17'0 0.0
2018-Apr-08 11:00N 36°48' W 076°17'0 0.0
2018-Apr-08 10:30N 36°48' W 076°17'0 0.0
2018-Apr-08 10:00N 36°48' W 076°17'0 0.0
2018-Apr-08 09:30N 36°48' W 076°17'0 0.0
2018-Apr-08 09:00N 36°48' W 076°17'0 0.0
2018-Apr-08 08:30N 36°48' W 076°17'0 0.0
2018-Apr-08 07:57N 36°48' W 076°17'0 0.0
2018-Apr-08 07:30N 36°48' W 076°17'0 0.0
2018-Apr-08 06:59N 36°48' W 076°17'0 0.0
2018-Apr-08 06:30N 36°48' W 076°17'0 0.0
2018-Apr-08 06:00N 36°48' W 076°17'0 0.0
2018-Apr-08 05:30N 36°48' W 076°17'0 0.0
2018-Apr-08 05:00N 36°48' W 076°17'0 0.0
2018-Apr-08 04:30N 36°48' W 076°17'0 0.0
2018-Apr-08 04:00N 36°48' W 076°17'0 0.0
2018-Apr-08 03:30N 36°48' W 076°17'0 0.0
2018-Apr-08 03:00N 36°48' W 076°17'0 0.0
2018-Apr-08 02:29N 36°48' W 076°17'0 0.0
2018-Apr-08 02:00N 36°48' W 076°17'0 0.0
2018-Apr-08 01:30N 36°48' W 076°17'0 0.0
2018-Apr-08 01:00N 36°48' W 076°17'0 0.0
2018-Apr-08 00:29N 36°48' W 076°17'0 0.0
2018-Apr-08 00:00N 36°48' W 076°17'0 0.0
2018-Apr-07 23:29N 36°48' W 076°17'0 0.0
2018-Apr-07 23:00N 36°48' W 076°17'0 0.0
2018-Apr-07 22:30N 36°48' W 076°17'0 0.0
2018-Apr-07 22:00N 36°48' W 076°17'0 0.0
2018-Apr-07 21:29N 36°48' W 076°17'0 0.0
2018-Apr-07 21:00N 36°48' W 076°17'0 0.0
2018-Apr-07 20:30N 36°48' W 076°17'0 0.0
2018-Apr-07 19:59N 36°48' W 076°17'0 0.0
2018-Apr-07 19:29N 36°48' W 076°17'0 0.0
2018-Apr-07 18:59N 36°48' W 076°17'0 0.0
2018-Apr-07 18:29N 36°48' W 076°17'0 0.0
2018-Apr-07 17:59N 36°48' W 076°17'0 0.0
2018-Apr-07 17:30N 36°48' W 076°17'0 0.0
2018-Apr-07 17:00N 36°48' W 076°17'0 0.0
2018-Apr-07 16:29N 36°48' W 076°17'0 0.0
2018-Apr-07 16:00N 36°48' W 076°17'0 0.0
2018-Apr-07 15:29N 36°48' W 076°17'0 0.0
2018-Apr-07 14:59N 36°48' W 076°17'0 0.0
2018-Apr-07 14:27N 36°48' W 076°17'0 0.0
2018-Apr-07 13:59N 36°48' W 076°17'0 0.0
2018-Apr-07 13:30N 36°48' W 076°17'0 0.0
2018-Apr-07 12:59N 36°48' W 076°17'0 0.0
2018-Apr-07 12:29N 36°48' W 076°17'0 0.0
2018-Apr-07 11:59N 36°48' W 076°17'0 0.0
2018-Apr-07 11:30N 36°48' W 076°17'0 0.0
2018-Apr-07 10:59N 36°48' W 076°17'0 0.0
2018-Apr-07 10:29N 36°48' W 076°17'0 0.0
2018-Apr-07 09:59N 36°48' W 076°17'0 0.0
2018-Apr-07 09:29N 36°48' W 076°17'0 0.0
2018-Apr-07 08:59N 36°48' W 076°17'0 0.0
2018-Apr-07 08:29N 36°48' W 076°17'0 0.0
2018-Apr-07 07:59N 36°48' W 076°17'0 0.0
2018-Apr-07 07:29N 36°48' W 076°17'0 0.0
2018-Apr-07 06:59N 36°48' W 076°17'0 0.0
2018-Apr-07 06:29N 36°48' W 076°17'0 0.0
2018-Apr-07 05:56N 36°48' W 076°17'0 0.0
2018-Apr-07 05:29N 36°48' W 076°17'0 0.0
2018-Apr-07 04:59N 36°48' W 076°17'0 0.0
2018-Apr-07 04:29N 36°48' W 076°17'0 0.0
2018-Apr-07 03:59N 36°48' W 076°17'0 0.0
2018-Apr-07 03:29N 36°48' W 076°17'0 0.0
2018-Apr-07 02:59N 36°48' W 076°17'0 0.0
2018-Apr-07 02:29N 36°48' W 076°17'0 0.0
2018-Apr-07 01:59N 36°48' W 076°17'0 0.0
2018-Apr-07 01:29N 36°48' W 076°17'0 0.0
2018-Apr-07 00:59N 36°48' W 076°17'0 0.0
2018-Apr-07 00:29N 36°48' W 076°17'0 0.0
2018-Apr-06 23:59N 36°48' W 076°17'0 0.0
2018-Apr-06 23:29N 36°48' W 076°17'0 0.0
2018-Apr-06 22:59N 36°48' W 076°17'0 0.0
2018-Apr-06 22:29N 36°48' W 076°17'0 0.0
2018-Apr-06 21:59N 36°48' W 076°17'0 0.0
2018-Apr-06 21:29N 36°48' W 076°17'0 0.0
2018-Apr-06 20:59N 36°48' W 076°17'0 0.0
2018-Apr-06 20:29N 36°48' W 076°17'0 0.0
2018-Apr-06 19:59N 36°48' W 076°17'0 0.0
2018-Apr-06 19:29N 36°48' W 076°17'0 0.0
2018-Apr-06 18:59N 36°48' W 076°17'0 0.0
2018-Apr-06 18:29N 36°48' W 076°17'0 0.0
2018-Apr-06 17:59N 36°48' W 076°17'0 0.0
2018-Apr-06 17:29N 36°48' W 076°17'0 0.0
2018-Apr-06 16:59N 36°48' W 076°17'0 0.0
2018-Apr-06 16:29N 36°48' W 076°17'0 0.0
2018-Apr-06 15:59N 36°48' W 076°17'0 0.0
2018-Apr-06 15:29N 36°48' W 076°17'0 0.0
2018-Apr-06 14:59N 36°48' W 076°17'0 0.0
2018-Apr-06 14:29N 36°48' W 076°17'0 0.0
2018-Apr-06 13:59N 36°48' W 076°17'0 0.0
2018-Apr-06 13:29N 36°48' W 076°17'0 0.0
2018-Apr-06 12:59N 36°48' W 076°17'0 0.0
2018-Apr-06 12:29N 36°48' W 076°17'0 0.0
2018-Apr-06 11:59N 36°48' W 076°17'0 0.0
2018-Apr-06 11:29N 36°48' W 076°17'0 0.0
2018-Apr-06 10:59N 36°48' W 076°17'0 0.0
2018-Apr-06 10:29N 36°48' W 076°17'0 0.0
2018-Apr-06 09:59N 36°48' W 076°17'0 0.0
2018-Apr-06 09:29N 36°48' W 076°17'0 0.0
2018-Apr-06 08:59N 36°48' W 076°17'0 0.0
2018-Apr-06 08:29N 36°48' W 076°17'0 0.0
2018-Apr-06 07:59N 36°48' W 076°17'0 0.0
2018-Apr-06 07:29N 36°48' W 076°17'0 0.0
2018-Apr-06 06:59N 36°48' W 076°17'0 0.0
2018-Apr-06 06:29N 36°48' W 076°17'0 0.0
2018-Apr-06 05:59N 36°48' W 076°17'0 0.0
2018-Apr-06 05:29N 36°48' W 076°17'0 0.0
2018-Apr-06 04:59N 36°48' W 076°17'0 0.0
2018-Apr-06 04:29N 36°48' W 076°17'0 0.0
2018-Apr-06 03:53N 36°48' W 076°17'0 0.0
2018-Apr-06 03:29N 36°48' W 076°17'0 0.0
2018-Apr-06 02:59N 36°48' W 076°17'0 0.0
2018-Apr-06 02:29N 36°48' W 076°17'0 0.0
2018-Apr-06 01:59N 36°48' W 076°17'0 0.0
2018-Apr-06 01:29N 36°48' W 076°17'0 0.0
2018-Apr-06 00:59N 36°48' W 076°17'0 0.0
2018-Apr-06 00:29N 36°48' W 076°17'0 0.0
2018-Apr-05 23:59N 36°48' W 076°17'0 0.0
2018-Apr-05 23:29N 36°48' W 076°17'0 0.0
2018-Apr-05 22:59N 36°48' W 076°17'0 0.0
2018-Apr-05 22:29N 36°48' W 076°17'0 0.0
2018-Apr-05 22:00N 36°48' W 076°17'1 3.0
2018-Apr-05 21:30N 36°50' W 076°18'2 4.6
2018-Apr-05 21:00N 36°52' W 076°19'4 7.4
2018-Apr-05 20:29N 36°55' W 076°20'2 2.6
2018-Apr-05 19:50N 36°56' W 076°22'0 0.0
2018-Apr-05 19:29N 36°56' W 076°22'0 0.0
2018-Apr-05 15:38N 36°56' W 076°22'0 0.0
2018-Apr-05 07:25N 36°56' W 076°22'0 0.0
2018-Apr-05 06:34N 36°56' W 076°22'0 0.0
2018-Apr-05 00:34N 36°56' W 076°22'0 0.1
2018-Apr-04 22:21N 36°57' W 076°22'13 8.6
2018-Apr-04 20:53N 36°58' W 076°06'4 9.3
2018-Apr-04 20:30N 36°57' W 076°02'5 9.6
2018-Apr-04 20:00N 36°57' W 075°56'4 7.3
2018-Apr-04 19:30N 36°57' W 075°51'23 0.9
2018-Apr-03 16:55N 36°58' W 076°20'2 0.1
2018-Apr-02 22:01N 36°56' W 076°22'0 5.3
2018-Apr-02 22:00N 36°57' W 076°22'19110.0
2018-Apr-02 02:52N 39°29' W 073°55'513.3
2018-Apr-02 02:27N 39°34' W 073°54'613.2
2018-Apr-02 02:00N 39°40' W 073°52'4011.6
2018-Apr-01 22:31N 40°20' W 073°49'0 9.8
2018-Apr-01 22:29N 40°20' W 073°48'11 2.0
2018-Apr-01 16:51N 40°29' W 073°38'0 0.0
2018-Apr-01 15:21N 40°29' W 073°38'0 0.0
2018-Apr-01 12:24N 40°29' W 073°38'0 0.0
2018-Mar-31 22:15N 40°29' W 073°39'0 0.0
2018-Mar-31 21:57N 40°29' W 073°39'0 0.0
2018-Mar-31 19:03N 40°29' W 073°39'0 0.0
2018-Mar-31 17:00N 40°29' W 073°38'0 0.0
2018-Mar-31 16:30N 40°29' W 073°38'  

Dump ship's entire track history